createdAt,value
2023-07-15T00:01:20.205Z,100872.66
2023-07-15T00:04:23.116Z,100880.59
2023-07-15T00:07:26.928Z,100880.59
2023-07-15T00:10:29.472Z,100885.91
2023-07-15T00:13:32.493Z,100882.47
2023-07-15T00:16:35.835Z,100881.66
2023-07-15T00:19:39.264Z,100874.53
2023-07-15T00:22:45.748Z,100871.78
2023-07-15T00:25:50.075Z,100875.38
2023-07-15T00:28:53.027Z,100871.06
2023-07-15T00:31:57.367Z,100862.06
2023-07-15T00:34:59.986Z,100863.91
2023-07-15T00:38:02.868Z,100860.47
2023-07-15T00:41:16.515Z,100865.22
2023-07-15T00:44:19.221Z,100861.53
2023-07-15T00:47:32.626Z,100860.63
2023-07-15T00:50:35.617Z,100858.84
2023-07-15T00:53:38.689Z,100858.94
2023-07-15T00:56:42.937Z,100871.47
2023-07-15T00:59:46.747Z,100873.31
2023-07-15T01:02:49.924Z,100867.06
2023-07-15T01:05:53.275Z,100870.66
2023-07-15T01:08:56.145Z,100864.47
2023-07-15T01:11:58.793Z,100864.53
2023-07-15T01:15:04.297Z,100862.75
2023-07-15T01:18:06.782Z,100869.81
2023-07-15T01:21:09.812Z,100854.69
2023-07-15T01:24:12.586Z,100850.22
2023-07-15T01:27:16.179Z,100857.38
2023-07-15T01:30:18.774Z,100854.88
2023-07-15T01:33:23.371Z,100852.50
2023-07-15T01:36:26.561Z,100857.78
2023-07-15T01:39:29.575Z,100855.00
2023-07-15T01:42:32.146Z,100862.41
2023-07-15T01:45:35.013Z,100862.22
2023-07-15T01:48:37.978Z,100858.66
2023-07-15T01:51:41.119Z,100852.50
2023-07-15T01:54:43.835Z,100858.78
2023-07-15T01:57:46.945Z,100855.22
2023-07-15T02:00:52.084Z,100858.75
2023-07-15T02:03:55.492Z,100847.28
2023-07-15T02:06:58.369Z,100851.72
2023-07-15T02:10:01.318Z,100851.78
2023-07-15T02:13:03.924Z,100858.88
2023-07-15T02:16:08.652Z,100850.84
2023-07-15T02:19:12.149Z,100848.19
2023-07-15T02:22:15.036Z,100849.13
2023-07-15T02:25:18.058Z,100852.72
2023-07-15T02:28:22.872Z,100849.19
2023-07-15T02:31:25.721Z,100850.94
2023-07-15T02:34:28.836Z,100862.59
2023-07-15T02:37:31.415Z,100873.25
2023-07-15T02:40:34.291Z,100873.34
2023-07-15T02:43:36.857Z,100865.50
2023-07-15T02:46:39.824Z,100867.16
2023-07-15T02:49:42.287Z,100867.94
2023-07-15T02:52:47.000Z,100872.47
2023-07-15T02:55:51.259Z,100867.97
2023-07-15T02:58:55.449Z,100866.41
2023-07-15T03:01:58.529Z,100864.59
2023-07-15T03:05:01.676Z,100872.41
2023-07-15T03:08:04.336Z,100871.47
2023-07-15T03:11:10.478Z,100868.78
2023-07-15T03:14:12.961Z,100859.81
2023-07-15T03:17:16.817Z,100853.50
2023-07-15T03:20:22.248Z,100864.22
2023-07-15T03:23:25.182Z,100859.63
2023-07-15T03:26:27.661Z,100854.25
2023-07-15T03:29:32.110Z,100861.31
2023-07-15T03:32:38.033Z,100854.19
2023-07-15T03:35:45.681Z,100856.78
2023-07-15T03:38:48.325Z,100858.59
2023-07-15T03:41:51.116Z,100851.44
2023-07-15T03:44:54.291Z,100860.28
2023-07-15T03:47:57.331Z,100850.38
2023-07-15T03:51:00.008Z,100851.38
2023-07-15T03:54:02.845Z,100862.09
2023-07-15T03:57:05.555Z,100861.19
2023-07-15T04:00:15.341Z,100858.38
2023-07-15T04:03:20.269Z,100862.78
2023-07-15T04:06:23.318Z,100866.28
2023-07-15T04:09:26.053Z,100856.38
2023-07-15T04:12:28.814Z,100858.03
2023-07-15T04:15:32.183Z,100854.28
2023-07-15T04:18:35.033Z,100854.16
2023-07-15T04:21:37.871Z,100854.13
2023-07-15T04:24:40.682Z,100856.59
2023-07-15T04:27:43.721Z,100860.03
2023-07-15T04:30:47.092Z,100861.75
2023-07-15T04:33:51.392Z,100859.75
2023-07-15T04:36:54.290Z,100863.16
2023-07-15T04:39:56.770Z,100863.78
2023-07-15T04:42:59.657Z,100863.50
2023-07-15T04:46:02.706Z,100861.50
2023-07-15T04:49:05.739Z,100854.00
2023-07-15T04:52:08.583Z,100854.53
2023-07-15T04:55:11.580Z,100850.06
2023-07-15T04:58:19.393Z,100843.66
2023-07-15T05:01:23.871Z,100835.31
2023-07-15T05:04:26.411Z,100828.03
2023-07-15T05:07:32.745Z,100834.97
2023-07-15T05:10:45.481Z,100841.84
2023-07-15T05:13:48.662Z,100838.97
2023-07-15T05:16:51.655Z,100841.53
2023-07-15T05:19:54.589Z,100847.47
2023-07-15T05:22:57.211Z,100838.91
2023-07-15T05:26:01.738Z,100840.44
2023-07-15T05:29:04.472Z,100840.09
2023-07-15T05:32:07.932Z,100848.69
2023-07-15T05:35:10.501Z,100846.69
2023-07-15T05:38:13.215Z,100844.47
2023-07-15T05:41:16.297Z,100838.63
2023-07-15T05:44:19.419Z,100850.88
2023-07-15T05:47:21.962Z,100846.03
2023-07-15T05:50:24.869Z,100842.97
2023-07-15T05:53:28.643Z,100832.41
2023-07-15T05:56:31.607Z,100837.28
2023-07-15T05:59:34.260Z,100831.91
2023-07-15T06:02:40.246Z,100836.16
2023-07-15T06:05:42.844Z,100831.50
2023-07-15T06:08:47.373Z,100820.25
2023-07-15T06:11:50.079Z,100824.66
2023-07-15T06:14:53.129Z,100822.63
2023-07-15T06:18:00.690Z,100827.09
2023-07-15T06:21:04.404Z,100820.34
2023-07-15T06:24:07.176Z,100813.69
2023-07-15T06:27:10.164Z,100809.97
2023-07-15T06:30:13.107Z,100807.22
2023-07-15T06:33:16.423Z,100813.94
2023-07-15T06:36:18.868Z,100803.31
2023-07-15T06:39:21.741Z,100799.69
2023-07-15T06:42:24.326Z,100808.13
2023-07-15T06:45:34.189Z,100805.13
2023-07-15T06:48:36.816Z,100804.19
2023-07-15T06:51:40.251Z,100791.78
2023-07-15T06:54:42.695Z,100791.28
2023-07-15T06:57:45.613Z,100794.38
2023-07-15T07:00:48.270Z,100787.09
2023-07-15T07:03:51.508Z,100791.16
2023-07-15T07:06:54.003Z,100798.53
2023-07-15T07:09:56.706Z,100783.44
2023-07-15T07:12:59.313Z,100772.06
2023-07-15T07:16:02.114Z,100780.03
2023-07-15T07:19:04.745Z,100778.34
2023-07-15T07:22:07.756Z,100772.59
2023-07-15T07:25:10.994Z,100771.56
2023-07-15T07:28:13.902Z,100766.72
2023-07-15T07:31:19.432Z,100770.91
2023-07-15T07:34:22.630Z,100759.78
2023-07-15T07:37:25.289Z,100761.84
2023-07-15T07:40:28.177Z,100765.59
2023-07-15T07:43:30.736Z,100761.13
2023-07-15T07:46:33.534Z,100762.78
2023-07-15T07:49:36.133Z,100763.03
2023-07-15T07:52:39.025Z,100756.56
2023-07-15T07:55:41.535Z,100762.78
2023-07-15T07:58:45.747Z,100763.97
2023-07-15T08:01:48.457Z,100768.53
2023-07-15T08:04:51.306Z,100772.38
2023-07-15T08:07:53.950Z,100761.25
2023-07-15T08:10:56.809Z,100753.25
2023-07-15T08:13:59.254Z,100750.59
2023-07-15T08:17:02.229Z,100742.09
2023-07-15T08:20:05.480Z,100749.81
2023-07-15T08:23:08.471Z,100755.91
2023-07-15T08:26:11.166Z,100742.00
2023-07-15T08:29:14.004Z,100739.69
2023-07-15T08:32:16.614Z,100740.88
2023-07-15T08:35:19.547Z,100742.41
2023-07-15T08:38:22.165Z,100744.72
2023-07-15T08:41:25.739Z,100736.94
2023-07-15T08:44:28.458Z,100738.00
2023-07-15T08:47:31.542Z,100729.75
2023-07-15T08:50:35.586Z,100728.75
2023-07-15T08:53:40.360Z,100739.19
2023-07-15T08:56:42.974Z,100729.06
2023-07-15T08:59:50.701Z,100728.91
2023-07-15T09:02:54.121Z,100729.63
2023-07-15T09:05:56.979Z,100719.47
2023-07-15T09:08:59.385Z,100713.91
2023-07-15T09:12:07.592Z,100709.53
2023-07-15T09:15:11.862Z,100718.59
2023-07-15T09:18:16.421Z,100717.63
2023-07-15T09:21:19.392Z,100703.47
2023-07-15T09:24:23.581Z,100704.00
2023-07-15T09:27:27.743Z,100700.44
2023-07-15T09:30:30.510Z,100706.50
2023-07-15T09:33:41.413Z,100697.22
2023-07-15T09:36:44.548Z,100699.25
2023-07-15T09:39:57.090Z,100691.78
2023-07-15T09:43:00.002Z,100702.91
2023-07-15T09:46:02.610Z,100696.69
2023-07-15T09:49:05.580Z,100691.84
2023-07-15T09:52:08.329Z,100703.81
2023-07-15T09:55:11.289Z,100689.94
2023-07-15T09:58:23.134Z,100688.16
2023-07-15T10:01:43.125Z,100674.28
2023-07-15T10:04:47.340Z,100686.69
2023-07-15T10:07:52.637Z,100690.25
2023-07-15T10:10:55.178Z,100685.41
2023-07-15T10:13:58.349Z,100678.16
2023-07-15T10:17:17.000Z,100678.47
2023-07-15T10:20:20.611Z,100664.09
2023-07-15T10:23:28.383Z,100670.63
2023-07-15T10:26:32.457Z,100665.72
2023-07-15T10:29:34.926Z,100667.13
2023-07-15T10:32:37.800Z,100666.81
2023-07-15T10:35:43.842Z,100669.41
2023-07-15T10:38:48.556Z,100663.63
2023-07-15T10:41:53.783Z,100651.16
2023-07-15T10:44:56.666Z,100659.69
2023-07-15T10:48:00.375Z,100657.09
2023-07-15T10:51:08.592Z,100657.41
2023-07-15T10:54:11.141Z,100656.16
2023-07-15T10:57:18.565Z,100647.63
2023-07-15T11:00:21.123Z,100639.03
2023-07-15T11:03:24.542Z,100639.31
2023-07-15T11:06:27.324Z,100635.59
2023-07-15T11:09:30.635Z,100639.50
2023-07-15T11:12:33.620Z,100635.13
2023-07-15T11:15:37.289Z,100629.22
2023-07-15T11:18:39.779Z,100638.66
2023-07-15T11:21:44.259Z,100627.44
2023-07-15T11:24:48.150Z,100629.25
2023-07-15T11:27:51.567Z,100633.13
2023-07-15T11:30:54.149Z,100618.31
2023-07-15T11:33:58.844Z,100624.13
2023-07-15T11:37:04.346Z,100616.88
2023-07-15T11:40:07.704Z,100619.00
2023-07-15T11:43:10.024Z,100610.31
2023-07-15T11:46:13.170Z,100609.66
2023-07-15T11:49:23.053Z,100609.91
2023-07-15T11:52:26.063Z,100619.28
2023-07-15T11:55:28.648Z,100612.16
2023-07-15T11:58:46.909Z,100611.91
2023-07-15T12:01:49.475Z,100598.97
2023-07-15T12:04:52.370Z,100605.00
2023-07-15T12:07:54.950Z,100602.16
2023-07-15T12:10:58.719Z,100590.75
2023-07-15T12:14:02.437Z,100588.91
2023-07-15T12:17:06.363Z,100581.31
2023-07-15T12:20:09.352Z,100584.22
2023-07-15T12:23:12.157Z,100578.50
2023-07-15T12:26:15.072Z,100576.53
2023-07-15T12:29:18.134Z,100564.94
2023-07-15T12:32:20.753Z,100566.22
2023-07-15T12:35:23.597Z,100559.94
2023-07-15T12:38:26.100Z,100564.47
2023-07-15T12:41:29.109Z,100557.56
2023-07-15T12:44:31.586Z,100549.97
2023-07-15T12:47:34.453Z,100548.66
2023-07-15T12:50:37.033Z,100555.56
2023-07-15T12:53:40.001Z,100550.19
2023-07-15T12:56:42.516Z,100554.06
2023-07-15T12:59:45.269Z,100545.25
2023-07-15T13:02:48.145Z,100554.78
2023-07-15T13:05:51.100Z,100541.84
2023-07-15T13:08:53.624Z,100539.03
2023-07-15T13:11:56.440Z,100543.03
2023-07-15T13:14:59.052Z,100542.34
2023-07-15T13:18:01.953Z,100533.06
2023-07-15T13:21:04.544Z,100535.78
2023-07-15T13:24:07.551Z,100532.28
2023-07-15T13:27:10.030Z,100531.25
2023-07-15T13:30:12.944Z,100524.47
2023-07-15T13:33:15.404Z,100525.72
2023-07-15T13:36:18.257Z,100519.34
2023-07-15T13:39:41.013Z,100516.78
2023-07-15T13:42:43.896Z,100522.00
2023-07-15T13:45:47.411Z,100521.44
2023-07-15T13:48:50.496Z,100520.22
2023-07-15T13:51:53.142Z,100516.75
2023-07-15T13:54:56.006Z,100522.09
2023-07-15T13:57:58.587Z,100511.63
2023-07-15T14:01:01.632Z,100516.09
2023-07-15T14:04:04.371Z,100512.38
2023-07-15T14:07:09.777Z,100512.84
2023-07-15T14:10:13.470Z,100516.03
2023-07-15T14:13:16.556Z,100506.72
2023-07-15T14:16:19.176Z,100508.75
2023-07-15T14:19:22.402Z,100510.69
2023-07-15T14:22:38.433Z,100515.75
2023-07-15T14:25:41.825Z,100510.66
2023-07-15T14:28:44.636Z,100507.19
2023-07-15T14:31:47.642Z,100506.72
2023-07-15T14:34:50.190Z,100502.72
2023-07-15T14:37:53.036Z,100498.56
2023-07-15T14:40:55.620Z,100500.91
2023-07-15T14:43:58.533Z,100500.38
2023-07-15T14:47:01.279Z,100499.66
2023-07-15T14:50:04.442Z,100487.66
2023-07-15T14:53:08.530Z,100491.16
2023-07-15T14:56:11.473Z,100475.69
2023-07-15T14:59:14.051Z,100481.50
2023-07-15T15:02:16.915Z,100479.06
2023-07-15T15:05:19.478Z,100481.31
2023-07-15T15:08:22.321Z,100483.91
2023-07-15T15:11:24.927Z,100493.00
2023-07-15T15:14:27.820Z,100475.91
2023-07-15T15:17:30.235Z,100481.19
2023-07-15T15:20:33.193Z,100485.44
2023-07-15T15:23:35.673Z,100480.25
2023-07-15T15:26:38.555Z,100477.31
2023-07-15T15:29:41.045Z,100479.69
2023-07-15T15:32:43.925Z,100480.25
2023-07-15T15:35:46.463Z,100472.91
2023-07-15T15:38:49.396Z,100469.25
2023-07-15T15:41:51.854Z,100467.59
2023-07-15T15:44:57.433Z,100476.22
2023-07-15T15:48:00.010Z,100474.53
2023-07-15T15:51:02.867Z,100467.91
2023-07-15T15:54:05.734Z,100472.56
2023-07-15T15:57:08.924Z,100475.63
2023-07-15T16:00:12.177Z,100480.22
2023-07-15T16:03:14.845Z,100470.53
2023-07-15T16:06:17.749Z,100467.56
2023-07-15T16:09:20.661Z,100454.84
2023-07-15T16:12:23.182Z,100462.16
2023-07-15T16:15:25.982Z,100463.19
2023-07-15T16:18:28.441Z,100461.22
2023-07-15T16:21:31.239Z,100460.78
2023-07-15T16:24:33.621Z,100462.94
2023-07-15T16:27:36.453Z,100458.81
2023-07-15T16:30:42.145Z,100455.81
2023-07-15T16:33:44.983Z,100456.13
2023-07-15T16:36:47.526Z,100456.41
2023-07-15T16:39:50.389Z,100453.91
2023-07-15T16:42:53.716Z,100457.41
2023-07-15T16:45:56.500Z,100454.56
2023-07-15T16:48:59.097Z,100458.31
2023-07-15T16:52:01.896Z,100448.09
2023-07-15T16:55:05.163Z,100454.59
2023-07-15T16:58:08.054Z,100449.44
2023-07-15T17:01:10.659Z,100447.78
2023-07-15T17:04:13.599Z,100454.59
2023-07-15T17:07:16.010Z,100459.16
2023-07-15T17:10:18.762Z,100451.66
2023-07-15T17:13:21.228Z,100458.78
2023-07-15T17:16:25.500Z,100460.63
2023-07-15T17:19:28.023Z,100461.19
2023-07-15T17:22:31.042Z,100459.47
2023-07-15T17:25:33.561Z,100461.44
2023-07-15T17:28:36.410Z,100453.78
2023-07-15T17:31:39.067Z,100448.31
2023-07-15T17:34:41.987Z,100452.38
2023-07-15T17:37:44.502Z,100457.34
2023-07-15T17:40:48.625Z,100452.28
2023-07-15T17:43:52.289Z,100461.56
2023-07-15T17:46:56.523Z,100468.38
2023-07-15T17:49:59.058Z,100466.63
2023-07-15T17:53:01.853Z,100459.41
2023-07-15T17:56:04.597Z,100469.75
2023-07-15T17:59:07.442Z,100465.69
2023-07-15T18:02:09.900Z,100473.19
2023-07-15T18:05:12.835Z,100477.50
2023-07-15T18:08:17.483Z,100469.09
2023-07-15T18:11:20.550Z,100473.22
2023-07-15T18:14:23.087Z,100469.69
2023-07-15T18:17:25.923Z,100466.44
2023-07-15T18:20:28.597Z,100469.53
2023-07-15T18:23:31.412Z,100467.03
2023-07-15T18:26:33.879Z,100467.75
2023-07-15T18:29:36.789Z,100469.06
2023-07-15T18:32:39.523Z,100462.69
2023-07-15T18:35:42.406Z,100469.97
2023-07-15T18:38:44.961Z,100475.75
2023-07-15T18:41:47.969Z,100478.53
2023-07-15T18:44:50.816Z,100484.88
2023-07-15T18:47:54.623Z,100482.16
2023-07-15T18:50:57.142Z,100486.28
2023-07-15T18:54:00.237Z,100484.53
2023-07-15T18:57:20.614Z,100492.31
2023-07-15T19:00:25.990Z,100496.16
2023-07-15T19:03:28.698Z,100492.13
2023-07-15T19:06:31.678Z,100493.97
2023-07-15T19:09:34.473Z,100501.22
2023-07-15T19:12:37.387Z,100491.66
2023-07-15T19:15:39.830Z,100494.59
2023-07-15T19:18:43.394Z,100496.50
2023-07-15T19:21:46.039Z,100496.31
2023-07-15T19:24:49.027Z,100492.31
2023-07-15T19:27:51.541Z,100500.41
2023-07-15T19:30:54.384Z,100501.53
2023-07-15T19:33:58.058Z,100501.66
2023-07-15T19:37:01.384Z,100495.75
2023-07-15T19:40:05.259Z,100497.16
2023-07-15T19:43:08.402Z,100503.16
2023-07-15T19:46:12.730Z,100507.38
2023-07-15T19:49:17.779Z,100492.56
2023-07-15T19:52:20.998Z,100497.13
2023-07-15T19:55:25.029Z,100498.09
2023-07-15T19:58:28.176Z,100501.75
2023-07-15T20:01:31.880Z,100503.53
2023-07-15T20:04:34.904Z,100501.16
2023-07-15T20:07:39.741Z,100503.06
2023-07-15T20:10:42.862Z,100502.38
2023-07-15T20:13:46.616Z,100503.88
2023-07-15T20:16:52.454Z,100504.09
2023-07-15T20:19:56.233Z,100509.84
2023-07-15T20:22:59.847Z,100513.31
2023-07-15T20:26:04.736Z,100504.25
2023-07-15T20:29:08.410Z,100508.41
2023-07-15T20:32:21.674Z,100509.47
2023-07-15T20:35:26.091Z,100513.47
2023-07-15T20:38:29.727Z,100510.56
2023-07-15T20:41:33.239Z,100506.75
2023-07-15T20:44:36.689Z,100513.00
2023-07-15T20:47:46.904Z,100514.25
2023-07-15T20:50:50.598Z,100515.38
2023-07-15T20:53:57.178Z,100511.91
2023-07-15T20:57:00.609Z,100512.44
2023-07-15T21:00:04.157Z,100512.84
2023-07-15T21:03:07.684Z,100515.84
2023-07-15T21:06:10.164Z,100515.16
2023-07-15T21:09:13.340Z,100515.53
2023-07-15T21:12:15.891Z,100513.69
2023-07-15T21:15:18.710Z,100509.31
2023-07-15T21:18:23.915Z,100511.72
2023-07-15T21:21:26.676Z,100512.78
2023-07-15T21:24:29.057Z,100514.03
2023-07-15T21:27:32.043Z,100513.34
2023-07-15T21:30:34.483Z,100511.88
2023-07-15T21:33:37.820Z,100517.56
2023-07-15T21:36:40.359Z,100527.19
2023-07-15T21:39:43.261Z,100521.97
2023-07-15T21:42:45.791Z,100517.75
2023-07-15T21:45:48.978Z,100518.63
2023-07-15T21:48:51.576Z,100522.47
2023-07-15T21:51:54.444Z,100528.44
2023-07-15T21:54:56.976Z,100523.97
2023-07-15T21:57:59.936Z,100522.41
2023-07-15T22:01:02.637Z,100515.47
2023-07-15T22:04:05.717Z,100522.84
2023-07-15T22:07:08.374Z,100527.59
2023-07-15T22:10:11.625Z,100524.28
2023-07-15T22:13:14.135Z,100523.47
2023-07-15T22:16:17.327Z,100517.63
2023-07-15T22:19:20.041Z,100516.91
2023-07-15T22:22:23.572Z,100517.97
2023-07-15T22:25:26.116Z,100514.94
2023-07-15T22:28:28.959Z,100522.28
2023-07-15T22:31:31.462Z,100514.25
2023-07-15T22:34:37.687Z,100511.59
2023-07-15T22:37:40.151Z,100511.97
2023-07-15T22:40:42.904Z,100511.16
2023-07-15T22:43:45.387Z,100512.28
2023-07-15T22:46:48.288Z,100495.31
2023-07-15T22:49:50.998Z,100500.03
2023-07-15T22:52:53.780Z,100495.16
2023-07-15T22:55:56.293Z,100493.72
2023-07-15T22:58:59.244Z,100496.31
2023-07-15T23:02:02.814Z,100503.19
2023-07-15T23:05:07.499Z,100501.75
2023-07-15T23:08:09.996Z,100489.31
2023-07-15T23:11:12.908Z,100492.16
2023-07-15T23:14:17.862Z,100494.06
2023-07-15T23:17:21.986Z,100492.66
2023-07-15T23:20:24.638Z,100498.41
2023-07-15T23:23:27.559Z,100504.84
2023-07-15T23:26:30.152Z,100491.38
2023-07-15T23:29:33.069Z,100495.13
2023-07-15T23:32:35.643Z,100487.22
2023-07-15T23:35:45.457Z,100495.53
2023-07-15T23:38:47.912Z,100486.59
2023-07-15T23:41:50.720Z,100483.19
2023-07-15T23:44:53.382Z,100494.41
2023-07-15T23:47:56.286Z,100495.44
2023-07-15T23:50:59.138Z,100487.56
2023-07-15T23:54:01.914Z,100501.09
2023-07-15T23:57:04.705Z,100492.31
